sensor_id;sensor_type;location;lat;lon;timestamp;P1;durP1;ratioP1;P2;durP2;ratioP2
22034;SDS011;11181;51.002;4.356;2022-10-31T00:01:47;13.80;;;5.50;;
22034;SDS011;11181;51.002;4.356;2022-10-31T00:04:14;9.93;;;4.73;;
22034;SDS011;11181;51.002;4.356;2022-10-31T00:06:40;11.40;;;6.03;;
22034;SDS011;11181;51.002;4.356;2022-10-31T00:09:08;13.33;;;4.57;;
22034;SDS011;11181;51.002;4.356;2022-10-31T00:11:35;8.27;;;4.77;;
22034;SDS011;11181;51.002;4.356;2022-10-31T00:14:04;9.40;;;5.47;;
22034;SDS011;11181;51.002;4.356;2022-10-31T00:16:31;6.90;;;4.23;;
22034;SDS011;11181;51.002;4.356;2022-10-31T00:18:58;7.87;;;5.10;;
22034;SDS011;11181;51.002;4.356;2022-10-31T00:21:27;6.87;;;4.23;;
22034;SDS011;11181;51.002;4.356;2022-10-31T00:23:54;9.07;;;5.33;;
22034;SDS011;11181;51.002;4.356;2022-10-31T00:26:21;8.17;;;4.07;;
22034;SDS011;11181;51.002;4.356;2022-10-31T00:28:48;8.13;;;5.07;;
22034;SDS011;11181;51.002;4.356;2022-10-31T00:31:17;8.80;;;4.77;;
22034;SDS011;11181;51.002;4.356;2022-10-31T00:33:44;7.63;;;4.90;;
22034;SDS011;11181;51.002;4.356;2022-10-31T00:36:12;7.67;;;4.30;;
22034;SDS011;11181;51.002;4.356;2022-10-31T00:38:40;8.10;;;5.17;;
22034;SDS011;11181;51.002;4.356;2022-10-31T00:41:07;8.43;;;5.27;;
22034;SDS011;11181;51.002;4.356;2022-10-31T00:43:34;8.73;;;5.23;;
22034;SDS011;11181;51.002;4.356;2022-10-31T00:46:01;10.07;;;5.63;;
22034;SDS011;11181;51.002;4.356;2022-10-31T00:48:29;9.93;;;5.07;;
22034;SDS011;11181;51.002;4.356;2022-10-31T00:50:57;8.00;;;5.10;;
22034;SDS011;11181;51.002;4.356;2022-10-31T00:53:24;6.57;;;4.73;;
22034;SDS011;11181;51.002;4.356;2022-10-31T00:55:51;11.07;;;5.37;;
22034;SDS011;11181;51.002;4.356;2022-10-31T00:58:18;13.90;;;6.77;;
22034;SDS011;11181;51.002;4.356;2022-10-31T01:00:46;8.60;;;5.53;;
22034;SDS011;11181;51.002;4.356;2022-10-31T01:03:19;8.00;;;5.83;;
22034;SDS011;11181;51.002;4.356;2022-10-31T01:05:55;7.73;;;5.80;;
22034;SDS011;11181;51.002;4.356;2022-10-31T01:08:23;7.50;;;5.37;;
22034;SDS011;11181;51.002;4.356;2022-10-31T01:11:00;7.43;;;5.20;;
22034;SDS011;11181;51.002;4.356;2022-10-31T01:13:28;7.97;;;4.93;;
22034;SDS011;11181;51.002;4.356;2022-10-31T01:15:55;8.17;;;5.40;;
22034;SDS011;11181;51.002;4.356;2022-10-31T01:18:23;7.87;;;5.20;;
22034;SDS011;11181;51.002;4.356;2022-10-31T01:20:58;6.27;;;3.93;;
22034;SDS011;11181;51.002;4.356;2022-10-31T01:23:26;6.23;;;4.27;;
22034;SDS011;11181;51.002;4.356;2022-10-31T01:26:07;8.73;;;4.60;;
22034;SDS011;11181;51.002;4.356;2022-10-31T01:28:35;5.90;;;4.33;;
22034;SDS011;11181;51.002;4.356;2022-10-31T01:31:05;6.77;;;5.07;;
22034;SDS011;11181;51.002;4.356;2022-10-31T01:33:33;6.33;;;4.70;;
22034;SDS011;11181;51.002;4.356;2022-10-31T01:36:10;7.33;;;4.40;;
22034;SDS011;11181;51.002;4.356;2022-10-31T01:38:38;7.50;;;4.83;;
22034;SDS011;11181;51.002;4.356;2022-10-31T01:41:05;8.23;;;5.13;;
22034;SDS011;11181;51.002;4.356;2022-10-31T01:43:41;10.47;;;5.83;;
22034;SDS011;11181;51.002;4.356;2022-10-31T01:46:09;9.63;;;6.10;;
22034;SDS011;11181;51.002;4.356;2022-10-31T01:48:37;10.83;;;5.20;;
22034;SDS011;11181;51.002;4.356;2022-10-31T01:51:08;8.30;;;5.30;;
22034;SDS011;11181;51.002;4.356;2022-10-31T01:53:36;8.13;;;6.13;;
22034;SDS011;11181;51.002;4.356;2022-10-31T01:56:03;11.87;;;5.30;;
22034;SDS011;11181;51.002;4.356;2022-10-31T01:58:31;6.23;;;4.47;;
22034;SDS011;11181;51.002;4.356;2022-10-31T02:00:59;8.63;;;5.30;;
22034;SDS011;11181;51.002;4.356;2022-10-31T02:03:27;11.63;;;4.87;;
22034;SDS011;11181;51.002;4.356;2022-10-31T02:05:55;10.60;;;5.67;;
22034;SDS011;11181;51.002;4.356;2022-10-31T02:08:26;6.10;;;4.60;;
22034;SDS011;11181;51.002;4.356;2022-10-31T02:10:54;5.70;;;3.97;;
22034;SDS011;11181;51.002;4.356;2022-10-31T02:13:22;5.63;;;4.43;;
22034;SDS011;11181;51.002;4.356;2022-10-31T02:15:51;6.77;;;4.30;;
22034;SDS011;11181;51.002;4.356;2022-10-31T02:18:19;5.57;;;4.40;;
22034;SDS011;11181;51.002;4.356;2022-10-31T02:20:49;5.90;;;3.73;;
22034;SDS011;11181;51.002;4.356;2022-10-31T02:23:35;5.17;;;4.60;;
22034;SDS011;11181;51.002;4.356;2022-10-31T02:32:17;6.03;;;4.40;;
22034;SDS011;11181;51.002;4.356;2022-10-31T02:34:52;5.93;;;3.43;;
22034;SDS011;11181;51.002;4.356;2022-10-31T02:37:25;5.40;;;4.03;;
22034;SDS011;11181;51.002;4.356;2022-10-31T02:40:03;6.43;;;3.90;;
22034;SDS011;11181;51.002;4.356;2022-10-31T02:42:37;8.47;;;4.53;;
22034;SDS011;11181;51.002;4.356;2022-10-31T02:45:11;8.30;;;4.73;;
22034;SDS011;11181;51.002;4.356;2022-10-31T02:47:42;7.23;;;4.13;;
22034;SDS011;11181;51.002;4.356;2022-10-31T02:50:13;6.97;;;4.43;;
22034;SDS011;11181;51.002;4.356;2022-10-31T02:52:44;6.37;;;4.80;;
22034;SDS011;11181;51.002;4.356;2022-10-31T02:55:11;10.63;;;4.83;;
22034;SDS011;11181;51.002;4.356;2022-10-31T02:58:00;10.10;;;4.63;;
22034;SDS011;11181;51.002;4.356;2022-10-31T03:00:36;6.13;;;4.20;;
22034;SDS011;11181;51.002;4.356;2022-10-31T03:03:10;5.37;;;3.90;;
22034;SDS011;11181;51.002;4.356;2022-10-31T03:05:48;6.80;;;4.53;;
22034;SDS011;11181;51.002;4.356;2022-10-31T03:08:21;4.93;;;4.23;;
22034;SDS011;11181;51.002;4.356;2022-10-31T03:10:52;5.17;;;3.17;;
22034;SDS011;11181;51.002;4.356;2022-10-31T03:13:26;10.93;;;5.20;;
22034;SDS011;11181;51.002;4.356;2022-10-31T03:16:02;6.43;;;3.73;;
22034;SDS011;11181;51.002;4.356;2022-10-31T03:18:36;5.23;;;2.87;;
22034;SDS011;11181;51.002;4.356;2022-10-31T03:21:06;4.87;;;3.37;;
22034;SDS011;11181;51.002;4.356;2022-10-31T03:23:36;4.80;;;3.03;;
22034;SDS011;11181;51.002;4.356;2022-10-31T03:26:05;7.07;;;3.60;;
22034;SDS011;11181;51.002;4.356;2022-10-31T03:28:37;5.40;;;3.73;;
22034;SDS011;11181;51.002;4.356;2022-10-31T03:31:09;4.83;;;3.57;;
22034;SDS011;11181;51.002;4.356;2022-10-31T03:33:39;7.67;;;4.57;;
22034;SDS011;11181;51.002;4.356;2022-10-31T03:36:08;5.93;;;4.83;;
22034;SDS011;11181;51.002;4.356;2022-10-31T03:38:38;6.77;;;3.83;;
22034;SDS011;11181;51.002;4.356;2022-10-31T03:41:07;6.13;;;4.63;;
22034;SDS011;11181;51.002;4.356;2022-10-31T03:43:40;8.37;;;4.13;;
22034;SDS011;11181;51.002;4.356;2022-10-31T03:46:10;6.47;;;3.70;;
22034;SDS011;11181;51.002;4.356;2022-10-31T03:48:37;4.73;;;3.57;;
22034;SDS011;11181;51.002;4.356;2022-10-31T03:51:06;5.13;;;3.43;;
22034;SDS011;11181;51.002;4.356;2022-10-31T03:53:39;5.00;;;3.30;;
22034;SDS011;11181;51.002;4.356;2022-10-31T03:56:10;4.67;;;3.47;;
22034;SDS011;11181;51.002;4.356;2022-10-31T03:58:47;5.27;;;3.57;;
22034;SDS011;11181;51.002;4.356;2022-10-31T04:01:18;5.53;;;3.93;;
22034;SDS011;11181;51.002;4.356;2022-10-31T04:03:47;6.13;;;4.17;;
22034;SDS011;11181;51.002;4.356;2022-10-31T04:06:15;5.10;;;3.27;;
22034;SDS011;11181;51.002;4.356;2022-10-31T04:08:45;5.57;;;3.87;;
22034;SDS011;11181;51.002;4.356;2022-10-31T04:11:17;6.63;;;3.70;;
22034;SDS011;11181;51.002;4.356;2022-10-31T04:13:48;5.17;;;3.63;;
22034;SDS011;11181;51.002;4.356;2022-10-31T04:16:17;5.57;;;3.53;;
22034;SDS011;11181;51.002;4.356;2022-10-31T04:18:44;5.90;;;4.43;;
22034;SDS011;11181;51.002;4.356;2022-10-31T04:21:11;4.77;;;3.43;;
22034;SDS011;11181;51.002;4.356;2022-10-31T04:23:38;5.87;;;4.03;;
22034;SDS011;11181;51.002;4.356;2022-10-31T04:26:05;5.23;;;3.50;;
22034;SDS011;11181;51.002;4.356;2022-10-31T04:28:32;5.97;;;3.67;;
22034;SDS011;11181;51.002;4.356;2022-10-31T04:31:00;4.60;;;3.60;;
22034;SDS011;11181;51.002;4.356;2022-10-31T04:33:27;6.87;;;4.23;;
22034;SDS011;11181;51.002;4.356;2022-10-31T04:35:54;6.97;;;3.47;;
22034;SDS011;11181;51.002;4.356;2022-10-31T04:38:21;4.27;;;3.20;;
22034;SDS011;11181;51.002;4.356;2022-10-31T04:40:48;3.33;;;2.70;;
22034;SDS011;11181;51.002;4.356;2022-10-31T04:43:15;5.33;;;3.23;;
22034;SDS011;11181;51.002;4.356;2022-10-31T04:45:42;3.10;;;2.50;;
22034;SDS011;11181;51.002;4.356;2022-10-31T04:48:10;3.07;;;2.10;;
22034;SDS011;11181;51.002;4.356;2022-10-31T04:50:37;3.43;;;2.83;;
22034;SDS011;11181;51.002;4.356;2022-10-31T04:53:04;4.53;;;3.10;;
22034;SDS011;11181;51.002;4.356;2022-10-31T04:55:30;5.10;;;3.03;;
22034;SDS011;11181;51.002;4.356;2022-10-31T04:57:57;4.50;;;2.97;;
22034;SDS011;11181;51.002;4.356;2022-10-31T05:00:24;3.20;;;2.87;;
22034;SDS011;11181;51.002;4.356;2022-10-31T05:02:52;6.47;;;3.37;;
22034;SDS011;11181;51.002;4.356;2022-10-31T05:05:21;4.87;;;3.30;;
22034;SDS011;11181;51.002;4.356;2022-10-31T05:07:50;5.97;;;3.40;;
22034;SDS011;11181;51.002;4.356;2022-10-31T05:10:18;7.83;;;4.53;;
22034;SDS011;11181;51.002;4.356;2022-10-31T05:12:46;5.63;;;3.70;;
22034;SDS011;11181;51.002;4.356;2022-10-31T05:15:13;5.40;;;3.57;;
22034;SDS011;11181;51.002;4.356;2022-10-31T05:17:41;5.60;;;4.03;;
22034;SDS011;11181;51.002;4.356;2022-10-31T05:20:08;5.10;;;3.87;;
22034;SDS011;11181;51.002;4.356;2022-10-31T05:22:41;5.00;;;3.37;;
22034;SDS011;11181;51.002;4.356;2022-10-31T05:25:08;6.63;;;4.30;;
22034;SDS011;11181;51.002;4.356;2022-10-31T05:27:37;5.43;;;4.43;;
22034;SDS011;11181;51.002;4.356;2022-10-31T05:30:05;5.00;;;3.83;;
22034;SDS011;11181;51.002;4.356;2022-10-31T05:32:36;4.93;;;4.00;;
22034;SDS011;11181;51.002;4.356;2022-10-31T05:35:04;4.47;;;3.40;;
22034;SDS011;11181;51.002;4.356;2022-10-31T05:37:33;5.90;;;4.13;;
22034;SDS011;11181;51.002;4.356;2022-10-31T05:40:01;6.37;;;4.10;;
22034;SDS011;11181;51.002;4.356;2022-10-31T05:42:28;5.13;;;4.07;;
22034;SDS011;11181;51.002;4.356;2022-10-31T05:44:55;5.47;;;4.90;;
22034;SDS011;11181;51.002;4.356;2022-10-31T05:47:22;5.17;;;4.43;;
22034;SDS011;11181;51.002;4.356;2022-10-31T05:49:49;5.23;;;4.07;;
22034;SDS011;11181;51.002;4.356;2022-10-31T05:52:16;4.10;;;3.70;;
22034;SDS011;11181;51.002;4.356;2022-10-31T05:54:43;7.70;;;4.47;;
22034;SDS011;11181;51.002;4.356;2022-10-31T05:57:12;6.83;;;4.43;;
22034;SDS011;11181;51.002;4.356;2022-10-31T05:59:38;6.70;;;4.60;;
22034;SDS011;11181;51.002;4.356;2022-10-31T06:02:05;6.17;;;4.93;;
22034;SDS011;11181;51.002;4.356;2022-10-31T06:04:32;6.97;;;4.57;;
22034;SDS011;11181;51.002;4.356;2022-10-31T06:06:59;6.00;;;5.17;;
22034;SDS011;11181;51.002;4.356;2022-10-31T06:09:26;7.10;;;4.97;;
22034;SDS011;11181;51.002;4.356;2022-10-31T06:11:53;8.70;;;4.90;;
22034;SDS011;11181;51.002;4.356;2022-10-31T06:14:21;6.93;;;4.57;;
22034;SDS011;11181;51.002;4.356;2022-10-31T06:16:48;8.23;;;5.63;;
22034;SDS011;11181;51.002;4.356;2022-10-31T06:19:15;6.97;;;5.37;;
22034;SDS011;11181;51.002;4.356;2022-10-31T06:21:41;5.27;;;4.50;;
22034;SDS011;11181;51.002;4.356;2022-10-31T06:24:08;6.50;;;5.33;;
22034;SDS011;11181;51.002;4.356;2022-10-31T06:26:35;7.60;;;5.47;;
22034;SDS011;11181;51.002;4.356;2022-10-31T06:29:02;9.33;;;6.40;;
22034;SDS011;11181;51.002;4.356;2022-10-31T06:31:30;11.73;;;7.77;;
22034;SDS011;11181;51.002;4.356;2022-10-31T06:33:57;16.60;;;8.10;;
22034;SDS011;11181;51.002;4.356;2022-10-31T06:36:24;13.27;;;7.80;;
22034;SDS011;11181;51.002;4.356;2022-10-31T06:38:51;13.00;;;7.27;;
22034;SDS011;11181;51.002;4.356;2022-10-31T06:41:18;13.67;;;6.63;;
22034;SDS011;11181;51.002;4.356;2022-10-31T06:43:45;9.77;;;7.43;;
22034;SDS011;11181;51.002;4.356;2022-10-31T06:46:13;10.63;;;6.53;;
22034;SDS011;11181;51.002;4.356;2022-10-31T06:48:41;8.70;;;5.70;;
22034;SDS011;11181;51.002;4.356;2022-10-31T06:51:08;8.17;;;6.33;;
22034;SDS011;11181;51.002;4.356;2022-10-31T06:53:35;10.13;;;6.20;;
22034;SDS011;11181;51.002;4.356;2022-10-31T06:56:02;14.20;;;6.90;;
22034;SDS011;11181;51.002;4.356;2022-10-31T06:58:29;12.47;;;6.60;;
22034;SDS011;11181;51.002;4.356;2022-10-31T07:00:58;10.63;;;7.63;;
22034;SDS011;11181;51.002;4.356;2022-10-31T07:03:25;12.60;;;8.03;;
22034;SDS011;11181;51.002;4.356;2022-10-31T07:05:55;13.23;;;6.43;;
22034;SDS011;11181;51.002;4.356;2022-10-31T07:08:23;12.90;;;6.67;;
22034;SDS011;11181;51.002;4.356;2022-10-31T07:10:51;11.57;;;7.57;;
22034;SDS011;11181;51.002;4.356;2022-10-31T07:13:18;9.30;;;6.37;;
22034;SDS011;11181;51.002;4.356;2022-10-31T07:15:50;10.67;;;7.33;;
22034;SDS011;11181;51.002;4.356;2022-10-31T07:18:17;11.97;;;7.33;;
22034;SDS011;11181;51.002;4.356;2022-10-31T07:20:44;14.10;;;6.67;;
22034;SDS011;11181;51.002;4.356;2022-10-31T07:23:12;11.50;;;7.00;;
22034;SDS011;11181;51.002;4.356;2022-10-31T07:25:39;9.03;;;6.97;;
22034;SDS011;11181;51.002;4.356;2022-10-31T07:28:07;11.60;;;7.87;;
22034;SDS011;11181;51.002;4.356;2022-10-31T07:30:34;18.00;;;8.37;;
22034;SDS011;11181;51.002;4.356;2022-10-31T07:33:01;15.63;;;8.77;;
22034;SDS011;11181;51.002;4.356;2022-10-31T07:35:29;13.60;;;8.03;;
22034;SDS011;11181;51.002;4.356;2022-10-31T07:37:57;12.93;;;8.43;;
22034;SDS011;11181;51.002;4.356;2022-10-31T07:40:33;14.00;;;8.13;;
22034;SDS011;11181;51.002;4.356;2022-10-31T07:43:00;14.90;;;9.33;;
22034;SDS011;11181;51.002;4.356;2022-10-31T07:45:27;17.27;;;10.07;;
22034;SDS011;11181;51.002;4.356;2022-10-31T07:47:54;14.13;;;10.33;;
22034;SDS011;11181;51.002;4.356;2022-10-31T07:50:21;14.87;;;9.60;;
22034;SDS011;11181;51.002;4.356;2022-10-31T07:52:57;15.63;;;8.73;;
22034;SDS011;11181;51.002;4.356;2022-10-31T07:55:25;17.07;;;10.43;;
22034;SDS011;11181;51.002;4.356;2022-10-31T07:57:57;12.93;;;9.13;;
22034;SDS011;11181;51.002;4.356;2022-10-31T08:00:24;15.33;;;10.13;;
22034;SDS011;11181;51.002;4.356;2022-10-31T08:02:58;17.40;;;10.83;;
22034;SDS011;11181;51.002;4.356;2022-10-31T08:05:26;12.00;;;8.53;;
22034;SDS011;11181;51.002;4.356;2022-10-31T08:07:53;13.27;;;8.87;;
22034;SDS011;11181;51.002;4.356;2022-10-31T08:10:20;17.60;;;8.87;;
22034;SDS011;11181;51.002;4.356;2022-10-31T08:12:52;11.67;;;8.70;;
22034;SDS011;11181;51.002;4.356;2022-10-31T08:15:22;14.90;;;9.73;;
22034;SDS011;11181;51.002;4.356;2022-10-31T08:17:49;10.23;;;7.30;;
22034;SDS011;11181;51.002;4.356;2022-10-31T08:20:17;12.43;;;8.53;;
22034;SDS011;11181;51.002;4.356;2022-10-31T08:22:51;12.43;;;8.33;;
22034;SDS011;11181;51.002;4.356;2022-10-31T08:25:22;12.33;;;8.37;;
22034;SDS011;11181;51.002;4.356;2022-10-31T08:27:50;10.93;;;7.70;;
22034;SDS011;11181;51.002;4.356;2022-10-31T08:30:17;11.10;;;8.10;;
22034;SDS011;11181;51.002;4.356;2022-10-31T08:32:46;10.97;;;8.30;;
22034;SDS011;11181;51.002;4.356;2022-10-31T08:35:13;14.10;;;9.43;;
22034;SDS011;11181;51.002;4.356;2022-10-31T08:37:40;15.37;;;9.13;;
22034;SDS011;11181;51.002;4.356;2022-10-31T08:40:09;15.83;;;8.97;;
22034;SDS011;11181;51.002;4.356;2022-10-31T08:42:38;12.37;;;8.27;;
22034;SDS011;11181;51.002;4.356;2022-10-31T08:45:05;13.63;;;8.73;;
22034;SDS011;11181;51.002;4.356;2022-10-31T08:47:32;11.80;;;8.80;;
22034;SDS011;11181;51.002;4.356;2022-10-31T08:50:00;13.20;;;8.60;;
22034;SDS011;11181;51.002;4.356;2022-10-31T08:52:27;14.17;;;8.90;;
22034;SDS011;11181;51.002;4.356;2022-10-31T08:54:54;10.77;;;8.07;;
22034;SDS011;11181;51.002;4.356;2022-10-31T08:57:21;11.30;;;7.50;;
22034;SDS011;11181;51.002;4.356;2022-10-31T08:59:48;13.57;;;8.23;;
22034;SDS011;11181;51.002;4.356;2022-10-31T09:02:15;15.80;;;7.90;;
22034;SDS011;11181;51.002;4.356;2022-10-31T09:04:42;11.93;;;8.63;;
22034;SDS011;11181;51.002;4.356;2022-10-31T09:07:10;13.70;;;8.47;;
22034;SDS011;11181;51.002;4.356;2022-10-31T09:09:37;13.47;;;8.70;;
22034;SDS011;11181;51.002;4.356;2022-10-31T09:12:04;14.10;;;8.47;;
22034;SDS011;11181;51.002;4.356;2022-10-31T09:14:31;12.77;;;8.43;;
22034;SDS011;11181;51.002;4.356;2022-10-31T09:16:58;15.90;;;8.40;;
22034;SDS011;11181;51.002;4.356;2022-10-31T09:19:25;14.70;;;8.93;;
22034;SDS011;11181;51.002;4.356;2022-10-31T09:21:52;12.53;;;9.10;;
22034;SDS011;11181;51.002;4.356;2022-10-31T09:24:21;15.23;;;9.60;;
22034;SDS011;11181;51.002;4.356;2022-10-31T09:26:48;14.87;;;9.30;;
22034;SDS011;11181;51.002;4.356;2022-10-31T09:29:15;13.40;;;9.10;;
22034;SDS011;11181;51.002;4.356;2022-10-31T09:31:42;11.07;;;8.30;;
22034;SDS011;11181;51.002;4.356;2022-10-31T09:34:09;11.20;;;7.90;;
22034;SDS011;11181;51.002;4.356;2022-10-31T09:36:36;11.80;;;7.70;;
22034;SDS011;11181;51.002;4.356;2022-10-31T09:39:04;9.57;;;6.90;;
22034;SDS011;11181;51.002;4.356;2022-10-31T09:41:40;13.73;;;8.30;;
22034;SDS011;11181;51.002;4.356;2022-10-31T09:44:22;13.00;;;8.10;;
22034;SDS011;11181;51.002;4.356;2022-10-31T09:46:55;13.80;;;9.47;;
22034;SDS011;11181;51.002;4.356;2022-10-31T09:49:37;8.70;;;6.20;;
22034;SDS011;11181;51.002;4.356;2022-10-31T09:52:20;12.30;;;7.07;;
22034;SDS011;11181;51.002;4.356;2022-10-31T09:54:51;12.03;;;8.13;;
22034;SDS011;11181;51.002;4.356;2022-10-31T09:57:22;12.37;;;8.30;;
22034;SDS011;11181;51.002;4.356;2022-10-31T09:59:53;13.37;;;7.77;;
22034;SDS011;11181;51.002;4.356;2022-10-31T10:02:21;14.00;;;8.43;;
22034;SDS011;11181;51.002;4.356;2022-10-31T10:04:53;9.63;;;7.43;;
22034;SDS011;11181;51.002;4.356;2022-10-31T10:07:25;10.00;;;8.03;;
22034;SDS011;11181;51.002;4.356;2022-10-31T10:10:02;11.77;;;7.53;;
22034;SDS011;11181;51.002;4.356;2022-10-31T10:12:42;13.80;;;8.73;;
22034;SDS011;11181;51.002;4.356;2022-10-31T10:15:31;12.33;;;8.30;;
22034;SDS011;11181;51.002;4.356;2022-10-31T10:18:15;11.83;;;8.83;;
22034;SDS011;11181;51.002;4.356;2022-10-31T10:20:56;13.87;;;8.87;;
22034;SDS011;11181;51.002;4.356;2022-10-31T10:23:35;11.93;;;9.37;;
22034;SDS011;11181;51.002;4.356;2022-10-31T10:26:12;14.13;;;9.80;;
22034;SDS011;11181;51.002;4.356;2022-10-31T10:28:45;14.27;;;9.80;;
22034;SDS011;11181;51.002;4.356;2022-10-31T10:31:16;13.43;;;9.57;;
22034;SDS011;11181;51.002;4.356;2022-10-31T10:33:47;14.33;;;8.97;;
22034;SDS011;11181;51.002;4.356;2022-10-31T10:36:26;11.97;;;8.70;;
22034;SDS011;11181;51.002;4.356;2022-10-31T10:38:58;15.63;;;9.20;;
22034;SDS011;11181;51.002;4.356;2022-10-31T10:41:30;12.97;;;9.87;;
22034;SDS011;11181;51.002;4.356;2022-10-31T10:43:59;15.97;;;9.50;;
22034;SDS011;11181;51.002;4.356;2022-10-31T10:46:29;14.80;;;9.77;;
22034;SDS011;11181;51.002;4.356;2022-10-31T10:49:21;18.60;;;9.87;;
22034;SDS011;11181;51.002;4.356;2022-10-31T10:51:58;14.20;;;10.27;;
22034;SDS011;11181;51.002;4.356;2022-10-31T10:54:41;14.13;;;9.20;;
22034;SDS011;11181;51.002;4.356;2022-10-31T10:57:19;18.37;;;12.93;;
22034;SDS011;11181;51.002;4.356;2022-10-31T11:00:16;21.97;;;12.90;;
22034;SDS011;11181;51.002;4.356;2022-10-31T11:02:45;19.83;;;13.37;;
22034;SDS011;11181;51.002;4.356;2022-10-31T11:05:14;17.30;;;12.20;;
22034;SDS011;11181;51.002;4.356;2022-10-31T11:07:46;16.13;;;11.00;;
22034;SDS011;11181;51.002;4.356;2022-10-31T11:10:13;14.43;;;9.83;;
22034;SDS011;11181;51.002;4.356;2022-10-31T11:12:42;13.87;;;11.10;;
22034;SDS011;11181;51.002;4.356;2022-10-31T11:15:18;13.80;;;9.67;;
22034;SDS011;11181;51.002;4.356;2022-10-31T11:17:48;14.57;;;10.43;;
22034;SDS011;11181;51.002;4.356;2022-10-31T11:20:26;15.93;;;10.17;;
22034;SDS011;11181;51.002;4.356;2022-10-31T11:23:15;18.00;;;12.17;;
22034;SDS011;11181;51.002;4.356;2022-10-31T11:25:47;15.87;;;10.60;;
22034;SDS011;11181;51.002;4.356;2022-10-31T11:28:16;15.40;;;10.73;;
22034;SDS011;11181;51.002;4.356;2022-10-31T11:30:45;17.53;;;11.00;;
22034;SDS011;11181;51.002;4.356;2022-10-31T11:33:16;16.90;;;12.13;;
22034;SDS011;11181;51.002;4.356;2022-10-31T11:35:46;17.83;;;12.00;;
22034;SDS011;11181;51.002;4.356;2022-10-31T11:38:15;17.13;;;12.13;;
22034;SDS011;11181;51.002;4.356;2022-10-31T11:40:52;18.50;;;11.07;;
22034;SDS011;11181;51.002;4.356;2022-10-31T11:43:22;17.00;;;11.37;;
22034;SDS011;11181;51.002;4.356;2022-10-31T11:45:51;16.60;;;11.67;;
22034;SDS011;11181;51.002;4.356;2022-10-31T11:48:19;16.87;;;12.07;;
22034;SDS011;11181;51.002;4.356;2022-10-31T11:50:50;15.67;;;11.73;;
22034;SDS011;11181;51.002;4.356;2022-10-31T11:53:22;16.40;;;11.57;;
22034;SDS011;11181;51.002;4.356;2022-10-31T11:56:00;20.67;;;10.87;;
22034;SDS011;11181;51.002;4.356;2022-10-31T11:58:30;18.73;;;11.90;;
22034;SDS011;11181;51.002;4.356;2022-10-31T12:00:59;20.17;;;11.87;;
22034;SDS011;11181;51.002;4.356;2022-10-31T12:03:28;16.93;;;11.43;;
22034;SDS011;11181;51.002;4.356;2022-10-31T12:06:05;15.60;;;10.40;;
22034;SDS011;11181;51.002;4.356;2022-10-31T12:08:37;19.90;;;10.20;;
22034;SDS011;11181;51.002;4.356;2022-10-31T12:11:08;15.07;;;10.67;;
22034;SDS011;11181;51.002;4.356;2022-10-31T12:13:51;17.47;;;10.73;;
22034;SDS011;11181;51.002;4.356;2022-10-31T12:16:28;14.47;;;9.97;;
22034;SDS011;11181;51.002;4.356;2022-10-31T12:19:00;13.63;;;9.57;;
22034;SDS011;11181;51.002;4.356;2022-10-31T12:21:41;15.13;;;10.13;;
22034;SDS011;11181;51.002;4.356;2022-10-31T12:24:23;13.93;;;9.53;;
22034;SDS011;11181;51.002;4.356;2022-10-31T12:27:02;14.90;;;10.17;;
22034;SDS011;11181;51.002;4.356;2022-10-31T12:29:43;14.77;;;8.87;;
22034;SDS011;11181;51.002;4.356;2022-10-31T12:32:28;16.97;;;8.90;;
22034;SDS011;11181;51.002;4.356;2022-10-31T12:35:18;15.47;;;8.63;;
22034;SDS011;11181;51.002;4.356;2022-10-31T12:38:05;14.60;;;8.73;;
22034;SDS011;11181;51.002;4.356;2022-10-31T12:40:59;13.20;;;8.67;;
22034;SDS011;11181;51.002;4.356;2022-10-31T12:43:45;13.00;;;9.17;;
22034;SDS011;11181;51.002;4.356;2022-10-31T12:46:22;12.37;;;8.03;;
22034;SDS011;11181;51.002;4.356;2022-10-31T12:49:00;12.73;;;7.47;;
22034;SDS011;11181;51.002;4.356;2022-10-31T12:51:40;12.53;;;7.67;;
22034;SDS011;11181;51.002;4.356;2022-10-31T12:54:19;16.33;;;7.90;;
22034;SDS011;11181;51.002;4.356;2022-10-31T12:56:56;15.13;;;7.47;;
22034;SDS011;11181;51.002;4.356;2022-10-31T12:59:31;12.90;;;7.17;;
22034;SDS011;11181;51.002;4.356;2022-10-31T13:02:03;13.10;;;7.53;;
22034;SDS011;11181;51.002;4.356;2022-10-31T13:04:40;9.67;;;6.57;;
22034;SDS011;11181;51.002;4.356;2022-10-31T13:07:12;11.30;;;6.27;;
22034;SDS011;11181;51.002;4.356;2022-10-31T13:09:46;10.50;;;6.20;;
22034;SDS011;11181;51.002;4.356;2022-10-31T13:12:18;11.67;;;6.17;;
22034;SDS011;11181;51.002;4.356;2022-10-31T13:14:48;11.37;;;7.07;;
22034;SDS011;11181;51.002;4.356;2022-10-31T13:17:21;14.20;;;6.43;;
22034;SDS011;11181;51.002;4.356;2022-10-31T13:19:54;14.70;;;6.87;;
22034;SDS011;11181;51.002;4.356;2022-10-31T13:22:30;12.87;;;5.80;;
22034;SDS011;11181;51.002;4.356;2022-10-31T13:25:02;10.73;;;5.97;;
22034;SDS011;11181;51.002;4.356;2022-10-31T13:27:40;9.13;;;6.50;;
22034;SDS011;11181;51.002;4.356;2022-10-31T13:30:15;10.57;;;5.40;;
22034;SDS011;11181;51.002;4.356;2022-10-31T13:32:44;11.03;;;5.77;;
22034;SDS011;11181;51.002;4.356;2022-10-31T13:35:18;13.30;;;6.40;;
22034;SDS011;11181;51.002;4.356;2022-10-31T13:37:51;11.97;;;6.17;;
22034;SDS011;11181;51.002;4.356;2022-10-31T13:40:32;10.07;;;5.40;;
22034;SDS011;11181;51.002;4.356;2022-10-31T13:43:06;10.77;;;5.83;;
22034;SDS011;11181;51.002;4.356;2022-10-31T13:45:47;7.77;;;6.20;;
22034;SDS011;11181;51.002;4.356;2022-10-31T13:48:18;10.33;;;5.30;;
22034;SDS011;11181;51.002;4.356;2022-10-31T13:51:01;9.77;;;5.20;;
22034;SDS011;11181;51.002;4.356;2022-10-31T13:53:35;8.33;;;5.43;;
22034;SDS011;11181;51.002;4.356;2022-10-31T13:56:18;11.00;;;5.00;;
22034;SDS011;11181;51.002;4.356;2022-10-31T13:58:56;10.97;;;5.03;;
22034;SDS011;11181;51.002;4.356;2022-10-31T14:01:30;12.27;;;5.80;;
22034;SDS011;11181;51.002;4.356;2022-10-31T14:04:00;9.27;;;5.50;;
22034;SDS011;11181;51.002;4.356;2022-10-31T14:06:39;12.20;;;5.20;;
22034;SDS011;11181;51.002;4.356;2022-10-31T14:09:21;11.20;;;6.33;;
22034;SDS011;11181;51.002;4.356;2022-10-31T14:11:51;13.17;;;6.00;;
22034;SDS011;11181;51.002;4.356;2022-10-31T14:14:19;11.93;;;5.80;;
22034;SDS011;11181;51.002;4.356;2022-10-31T14:16:52;8.27;;;5.47;;
22034;SDS011;11181;51.002;4.356;2022-10-31T14:19:21;11.33;;;5.70;;
22034;SDS011;11181;51.002;4.356;2022-10-31T14:21:50;11.80;;;6.07;;
22034;SDS011;11181;51.002;4.356;2022-10-31T14:24:30;11.60;;;4.77;;
22034;SDS011;11181;51.002;4.356;2022-10-31T14:27:01;9.97;;;5.43;;
22034;SDS011;11181;51.002;4.356;2022-10-31T14:29:30;7.33;;;5.33;;
22034;SDS011;11181;51.002;4.356;2022-10-31T14:32:00;8.30;;;5.07;;
22034;SDS011;11181;51.002;4.356;2022-10-31T14:34:36;9.10;;;5.60;;
22034;SDS011;11181;51.002;4.356;2022-10-31T14:37:16;12.10;;;5.87;;
22034;SDS011;11181;51.002;4.356;2022-10-31T14:40:03;14.03;;;6.37;;
22034;SDS011;11181;51.002;4.356;2022-10-31T14:42:41;9.57;;;5.47;;
22034;SDS011;11181;51.002;4.356;2022-10-31T14:45:23;9.40;;;5.57;;
22034;SDS011;11181;51.002;4.356;2022-10-31T14:48:10;14.20;;;5.83;;
22034;SDS011;11181;51.002;4.356;2022-10-31T14:50:48;10.10;;;5.63;;
22034;SDS011;11181;51.002;4.356;2022-10-31T14:53:21;11.20;;;5.23;;
22034;SDS011;11181;51.002;4.356;2022-10-31T14:55:51;9.07;;;4.93;;
22034;SDS011;11181;51.002;4.356;2022-10-31T14:58:21;11.23;;;5.63;;
22034;SDS011;11181;51.002;4.356;2022-10-31T15:00:52;11.73;;;5.50;;
22034;SDS011;11181;51.002;4.356;2022-10-31T15:03:23;11.97;;;5.03;;
22034;SDS011;11181;51.002;4.356;2022-10-31T15:05:55;9.30;;;5.00;;
22034;SDS011;11181;51.002;4.356;2022-10-31T15:08:31;8.37;;;5.37;;